This is the latest recevied weather packets stored in our database for station/object WP3OF-1. If no packets are shown the sender has not sent any weather packets the latest 10 day(s).
| Time | Temp. | Humidity | Pressure | Rain* | Wind** | Luminosity | Snow |
|---|---|---|---|---|---|---|---|
| 1777908464 | 28.33° C | 76% | 1017.6 hPa | 0 mm | - | - | - |
| 1777908160 | 29.44° C | 73% | 1017.7 hPa | 0 mm | - | - | - |
| 1777907856 | 28.33° C | 74% | 1017.4 hPa | 0 mm | - | - | - |
| 1777907552 | 28.33° C | 74% | 1017.3 hPa | 0 mm | - | - | - |
| 1777907248 | 28.33° C | 72% | 1017.8 hPa | 0 mm | - | - | - |
| 1777906945 | 28.33° C | 73% | 1017.8 hPa | 0 mm | - | - | - |
| 1777906643 | 28.33° C | 74% | 1017.7 hPa | 0 mm | - | - | - |
| 1777906339 | 28.33° C | 76% | 1017.4 hPa | 0 mm | - | - | - |
| 1777906035 | 28.33° C | 74% | 1017.7 hPa | 0 mm | - | - | - |
| 1777905732 | 27.78° C | 75% | 1017.7 hPa | 0 mm | - | - | - |
| 1777905429 | 28.33° C | 74% | 1017.8 hPa | 0 mm | - | - | - |
| 1777905127 | 27.78° C | 77% | 1018 hPa | 0 mm | - | - | - |
| 1777904823 | 27.78° C | 76% | 1017.7 hPa | 0 mm | - | - | - |
| 1777904521 | 27.78° C | 76% | 1017.8 hPa | 0 mm | - | - | - |
| 1777904217 | 27.78° C | 77% | 1018 hPa | 0 mm | - | - | - |
| 1777903914 | 27.78° C | 77% | 1017.9 hPa | 0 mm | - | - | - |
| 1777903611 | 27.22° C | 78% | 1017.8 hPa | 0 mm | - | - | - |
| 1777903307 | 27.78° C | 77% | 1018 hPa | 0 mm | - | - | - |
| 1777903004 | 27.78° C | 75% | 1017.9 hPa | 0 mm | - | - | - |
| 1777902700 | 28.33° C | 74% | 1018.2 hPa | 0 mm | - | - | - |
| 1777902398 | 28.33° C | 74% | 1017.9 hPa | 0 mm | - | - | - |
| 1777902094 | 28.33° C | 73% | 1017.8 hPa | 0 mm | - | - | - |
| 1777901793 | 28.89° C | 73% | 1018.1 hPa | 0 mm | - | - | - |
| 1777901490 | 28.89° C | 73% | 1017.8 hPa | 0 mm | - | - | - |
| 1777901187 | 28.33° C | 74% | 1018 hPa | 0 mm | - | - | - |
* Rain latest hour (hover to see other rain measurements)
** Current wind speed in m/s (hover to see current wind gust speed)